Weather observations for the past three days for
Faribault, Faribault Municipal Airport
Metric (Imperial)
Date Time (cdt) Wind (kph) Vis. (km) Weather Sky Cond. Temperature (ºC) Relative Humidity Wind Chill (°C) Heat Index (°C) Pressure Precipitation (cm)
Air Dwpt 6 hour altimeter (cm) sea level (mb) 1 hr 3 hr 6 hr
Max. Min.
06 11:15 SE 17 16.09 Overcast OVC011 22 19 83% 76.45 0.0
06 10:55 SE 13 16.09 Overcast OVC011 22 19 83% 76.45 0.0
06 10:35 SE 15 16.09 Overcast OVC009 22 19 83% 76.45 0.0
06 10:15 SE 13 16.09 Overcast OVC009 22 19 83% 76.45 0.0
06 09:55 SE 13 16.09 Overcast OVC009 22 19 83% 76.43 0.0
06 09:35 SE 15 16.09 Overcast OVC009 22 19 83% 76.43 0.0
06 09:15 SE 11 16.09 Overcast OVC007 21 19 88% 76.45 0.0
06 08:55 SE 17 11.27 Overcast OVC005 21 19 88% 76.43 0.0
06 08:35 SE 17 8.05 Fog/Mist OVC005 21 19 88% 76.43 0.0
06 08:15 SE 11 6.44 Fog/Mist OVC005 20 19 94% 76.43 0.0
06 07:55 SE 15 6.44 Fog/Mist OVC005 20 19 94% 76.4 0.0
06 07:35 SE 9 11.27 Partly Cloudy SCT005 20 19 94% 76.4 0.0
06 07:15 SE 7 11.27 Fair CLR 19 19 100% 76.38 0.0
06 06:55 Calm 11.27 Fair CLR 19 18 94% 76.38 0.0
06 06:35 E 7 16.09 Fair CLR 19 18 94% 76.38 0.0
06 06:15 SE 7 16.09 Fair CLR 19 18 94% 76.35 0.0
06 05:55 SE 9 16.09 Fair CLR 19 18 94% 76.35 0.0
06 05:35 SE 6 16.09 Fair CLR 19 18 94% 76.35 0.0
06 05:15 SE 6 16.09 Fair CLR 20 19 94% 76.35 0.0
06 04:55 SE 7 16.09 Fair CLR 20 18 88% 76.33 0.0
06 04:15 SE 7 16.09 Fair CLR 21 19 88% 76.28 0.0
06 03:55 SE 7 16.09 Partly Cloudy SCT120 21 19 88% 76.28 0.0
06 03:35 SE 11 16.09 Mostly Cloudy BKN120 21 19 88% 76.28 0.0
06 03:15 SE 7 16.09 Fair CLR 21 19 88% 76.28 0.0
06 02:55 SE 13 16.09 Fair CLR 22 19 83% 76.28 0.0
06 02:35 E 6 16.09 Fair CLR 22 19 83% 76.3 0.0
06 02:15 SE 11 16.09 Fair CLR 22 19 83% 76.3 0.0
06 01:55 SE 9 16.09 Fair CLR 22 19 83% 76.3 0.0
06 01:35 SE 9 16.09 Partly Cloudy SCT120 22 19 83% 76.3 0.0
06 01:15 SE 11 16.09 Partly Cloudy SCT110 22 20 88% 76.3 0.0
06 00:55 E 9 16.09 Fair CLR 22 20 88% 76.33 0.0
06 00:35 E 6 16.09 Partly Cloudy SCT110 22 20 88% 76.33 0.0
06 00:15 E 7 16.09 Partly Cloudy SCT110 22 20 88% 76.33 0.0
05 23:55 E 7 16.09 Partly Cloudy SCT110 22 20 88% 76.35 0.0
05 23:35 Calm 16.09 Mostly Cloudy BKN110 22 20 88% 76.35 0.0
05 23:15 Calm 16.09 Mostly Cloudy BKN120 21 20 94% 76.33 0.0
05 22:55 Calm 16.09 Partly Cloudy SCT120 21 20 94% 76.33 0.0
05 22:35 NE 6 16.09 Partly Cloudy SCT120 22 21 94% 76.33 0.0
05 22:15 Calm 16.09 Mostly Cloudy BKN120 21 20 94% 76.35 0.0
05 21:55 Calm 16.09 Mostly Cloudy BKN120 21 20 94% 76.35 0.0
05 21:35 Calm 16.09 Fair CLR 22 21 94% 76.33 0.0
05 21:15 Calm 16.09 Fair CLR 22 21 94% 76.28 0.0
05 20:55 Calm 16.09 Fair CLR 23 21 89% 76.28 0.0
05 20:35 SE 6 16.09 Partly Cloudy SCT120 23 21 89% 76.23 0.0
05 20:15 SE 7 16.09 Fair CLR 23 21 89% 76.2 0.0
05 19:55 E 7 16.09 Fair CLR 24 21 83% 24 76.2 0.0
05 19:35 E 7 16.09 Fair CLR 24 21 83% 24 76.23 0.0
05 19:15 E 6 16.09 Fair CLR 25 21 79% 26 76.2 0.0
05 18:55 E 9 16.09 Fair CLR 26 21 74% 27 76.2 0.0
05 18:35 E 13 16.09 Fair CLR 26 21 74% 27 76.17 0.0
05 18:15 E 11 16.09 Fair CLR 26 21 74% 27 76.17 0.0
05 17:55 E 19 16.09 Fair CLR 27 21 70% 29 76.15 0.0
05 17:35 SE 19 G 26 16.09 Fair CLR 27 21 70% 29 76.15 0.0
05 17:15 E 11 16.09 Fair CLR 27 21 70% 29 76.12 0.0
05 16:55 E 13 16.09 Fair CLR 26 21 74% 27 76.12 0.0
05 16:35 E 9 16.09 Fair CLR 26 21 74% 27 76.12 0.0
05 16:15 E 6 16.09 Fair CLR 26 21 74% 27 76.15 0.0
05 15:55 E 9 16.09 Fair CLR 26 21 74% 27 76.15 0.0
05 15:35 NE 13 16.09 Fair CLR 26 21 74% 27 76.15 0.0
05 15:15 E 13 16.09 Fair CLR 26 21 74% 27 76.17 0.0
05 12:55 E 9 16.09 Overcast SCT012 OVC022 24 21 83% 24 76.3 0.0
05 12:35 Calm 16.09 Overcast BKN012 OVC022 24 21 83% 24 76.33 0.0
05 12:15 SW 6 16.09 Overcast OVC010 24 21 83% 24 76.38 0.0
05 11:55 Calm 16.09 Overcast OVC010 23 21 89% 76.35 0.0
05 11:35 E 6 16.09 Overcast OVC008 23 21 89% 76.35 0.0
05 11:15 E 6 16.09 Overcast OVC006 22 21 94% 76.35 0.0
05 10:55 E 6 11.27 Overcast OVC006 22 21 94% 76.33 0.0
05 10:35 E 11 11.27 Overcast OVC004 22 21 94% 76.33 0.0
05 10:15 E 7 8.05 Fog/Mist OVC004 21 21 100% 76.33 0.0
05 09:55 E 9 6.44 Fog/Mist OVC002 21 21 100% 76.3 0.0
05 09:35 NE 6 2.01 Fog/Mist OVC002 21 20 94% 76.28 0.0
05 09:15 NE 7 1.61 Fog/Mist OVC002 21 20 94% 76.28 0.0
05 08:55 NE 6 0.80 Fog OVC002 21 20 94% 76.28 0.0
05 08:35 Calm 0.80 Fog OVC002 21 20 94% 76.25 0.0
05 08:15 Calm 0.80 Fog OVC002 21 20 94% 76.25 0.0
05 07:55 Calm 0.40 Fog OVC002 21 19 88% 76.23 0.0
05 07:35 Calm 0.40 Fog OVC002 20 19 94% 76.2 0.0
05 07:15 NE 7 0.40 Fog OVC002 19 19 100% 76.15 0.0
05 06:55 NE 7 0.40 Fog OVC002 19 19 100% 76.17 0.0
05 06:35 NE 7 0.80 Fog OVC002 19 19 100% 76.17 0.0
05 06:15 NE 7 0.80 Fog OVC002 19 19 100% 76.15 0.0
05 05:55 NE 6 0.80 Fog OVC002 19 19 100% 76.15 0.0
05 05:35 NE 6 0.80 Fog OVC002 19 19 100% 76.15 0.0
05 05:15 NE 6 0.80 Fog OVC002 19 19 100% 76.15 0.0
05 04:55 NE 7 1.21 Fog/Mist OVC002 19 19 100% 76.12 0.0
05 04:35 NE 11 6.44 Fog/Mist OVC004 19 19 100% 76.07 0.0
05 04:15 NE 7 16.09 Mostly Cloudy BKN004 19 19 100% 76.1 0.0
05 03:55 NE 7 16.09 Fair CLR 19 18 94% 76.1 0.0
05 03:35 NE 7 16.09 Fair CLR 19 19 100% 76.12 0.0
05 03:15 NE 6 16.09 Fair CLR 20 19 94% 76.12 0.0
05 02:55 NE 6 16.09 Fair CLR 20 19 94% 76.12 0.0
05 02:35 NE 7 16.09 Fair CLR 20 19 94% 76.15 0.0
05 02:15 N 6 16.09 Fair CLR 21 19 88% 76.15 0.0
05 01:55 Calm 16.09 Fair CLR 21 19 88% 76.15 0.0
05 01:35 NE 9 16.09 Fair CLR 21 19 88% 76.12 0.0
05 01:15 NE 9 16.09 Fair CLR 21 19 88% 76.12 0.0
05 00:55 N 7 16.09 Fair CLR 21 19 88% 76.12 0.0
05 00:35 Calm 16.09 Fair CLR 22 19 83% 76.1 0.0
05 00:15 NE 6 16.09 Fair CLR 22 19 83% 76.1 0.0
04 23:55 NE 7 16.09 Fair CLR 23 19 78% 76.1 0.0
04 23:35 Calm 16.09 Fair CLR 23 20 83% 76.1 0.0
04 23:15 NE 6 16.09 Fair CLR 23 20 83% 76.07 0.0
04 22:55 NE 9 16.09 Partly Cloudy SCT032 24 20 78% 24 76.1 0.0
04 22:35 NE 9 16.09 Fair CLR 24 21 83% 24 76.1 0.0
04 22:15 NE 6 16.09 Fair CLR 24 21 83% 24 76.1 0.0
04 21:55 NE 6 16.09 Fair CLR 25 21 79% 26 76.07 0.0
04 21:35 NE 7 16.09 Fair CLR 24 22 89% 24 76.07 0.0
04 21:15 N 6 16.09 Fair CLR 25 22 83% 26 76.05 0.0
04 20:55 N 6 16.09 Fair CLR 26 22 79% 28 76.02 0.0
04 20:35 N 6 16.09 Fair CLR 26 22 79% 28 76.02 0.0
04 20:15 N 6 16.09 Fair CLR 26 22 79% 28 76 0.0
04 19:55 N 6 16.09 Fair CLR 27 23 79% 30 75.97 0.0
04 19:35 N 7 16.09 Fair CLR 28 23 74% 31 75.97 0.0
04 19:15 N 7 16.09 Fair CLR 29 23 70% 33 75.97 0.0
04 18:55 Calm 16.09 Fair CLR 29 24 74% 34 75.97 0.0
04 18:35 N 7 16.09 Fair CLR 30 24 70% 35 75.95 0.0
04 18:15 N 11 16.09 Fair CLR 31 24 66% 37 75.95 0.0
04 17:55 N 9 16.09 Fair CLR 31 24 66% 37 75.95 0.0
04 17:35 N 7 16.09 Fair CLR 31 24 66% 37 75.92 0.0
04 17:15 N 11 16.09 Fair CLR 32 24 63% 38 75.92 0.0
04 16:55 N 9 16.09 Fair CLR 32 24 63% 38 75.9 0.0
04 16:35 N 9 16.09 Fair CLR 32 24 63% 38 75.9 0.0
04 16:15 N 7 16.09 Fair CLR 33 24 59% 39 75.9 0.0
04 15:55 N 9 16.09 Fair CLR 33 25 63% 41 75.9 0.0
04 15:35 N 9 16.09 Fair CLR 33 24 59% 39 75.9 0.0
04 15:15 Calm 16.09 Fair CLR 33 23 56% 38 75.87 0.0
04 14:55 Calm 16.09 Fair CLR 33 24 59% 39 75.87 0.0
04 14:35 Calm 16.09 Fair CLR 33 24 59% 39 75.87 0.0
04 14:15 Calm 16.09 Fair CLR 33 24 59% 39 75.9 0.0
04 13:55 Calm 16.09 Fair CLR 33 24 59% 39 75.9 0.0
04 13:35 SW 6 16.09 Fair CLR 33 24 59% 39 75.9 0.0
04 13:15 W 7 16.09 Fair CLR 32 24 63% 38 75.9 0.0
04 12:55 SW 6 16.09 Fair CLR 32 24 63% 38 75.9 0.0
04 12:35 W 7 16.09 Fair CLR 32 24 63% 38 75.9 0.0
04 12:15 SW 9 16.09 Fair CLR 32 24 63% 38 75.87 0.0
04 11:55 Calm 16.09 Fair CLR 31 23 62% 35 75.87 0.0
04 11:35 Calm 16.09 Fair CLR 31 23 62% 35 75.87 0.0
04 11:15 Calm 16.09 Fair CLR 30 23 66% 34 75.84 0.0
04 10:55 Calm 16.09 Fair CLR 29 23 70% 33 75.84 0.0
04 10:35 Calm 16.09 Fair CLR 29 23 70% 33 75.84 0.0
04 10:15 Calm 16.09 Fair CLR 28 23 74% 31 75.84 0.0
04 09:55 Calm 16.09 Fair CLR 28 23 74% 31 75.84 0.0
04 09:35 Calm 16.09 Fair CLR 27 22 74% 29 75.84 0.0
04 09:15 SW 7 16.09 Fair CLR 27 22 74% 29 75.84 0.0
04 08:55 W 6 16.09 Fair CLR 26 22 79% 28 75.84 0.0
04 08:35 SW 9 16.09 Fair CLR 25 22 83% 26 75.84 0.0
04 08:15 SW 6 16.09 Fair CLR 24 22 89% 24 75.82 0.0
04 07:55 Calm 16.09 Fair CLR 23 22 94% 75.82 0.0
04 07:35 Calm 16.09 Fair CLR 23 21 89% 75.79 0.0
04 06:55 Calm 11.27 Fair CLR 21 20 94% 75.79 0.0
04 06:35 S 6 16.09 Fair CLR 22 21 94% 75.77 0.0
04 06:15 Calm 16.09 Fair CLR 22 21 94% 75.77 0.0
04 05:55 Calm 16.09 Fair CLR 23 21 89% 75.77 0.0
04 05:35 S 6 16.09 Fair CLR 23 21 89% 75.77 0.0
04 05:15 Calm 16.09 Fair CLR 22 21 94% 75.77 0.0
04 04:55 Calm 16.09 Fair CLR 23 22 94% 75.74 0.0
04 04:15 Calm 16.09 Fair CLR 23 22 94% 75.74 0.0
04 03:55 Calm 16.09 Fair CLR 24 22 89% 24 75.72 0.0
04 03:35 S 6 16.09 Fair CLR 24 22 89% 24 75.72 0.0
04 03:15 S 6 16.09 Fair CLR 24 22 89% 24 75.72 0.0
04 02:55 S 6 16.09 Fair CLR 24 22 89% 24 75.72 0.0
04 02:35 S 6 16.09 Fair CLR 24 22 89% 24 75.72 0.0
04 02:15 S 6 16.09 Fair CLR 24 22 89% 24 75.72 0.0
04 01:55 S 6 16.09 Fair CLR 24 22 89% 24 75.74 0.0
04 01:35 Calm 16.09 Fair CLR 24 22 89% 24 75.74 0.0
04 01:15 S 6 16.09 Fair CLR 24 22 89% 24 75.74 0.0
04 00:55 S 6 16.09 Fair CLR 24 22 89% 24 75.72 0.0
04 00:35 S 6 16.09 Fair CLR 24 22 89% 24 75.72 0.0
04 00:15 S 9 16.09 Fair CLR 24 22 89% 24 75.72 0.0
03 23:55 S 9 16.09 Fair CLR 25 22 83% 26 75.72 0.0
03 23:35 S 9 16.09 Fair CLR 25 22 83% 26 75.72 0.0
03 23:15 S 7 16.09 Fair CLR 25 22 83% 26 75.72 0.0
03 22:55 S 7 16.09 Fair CLR 26 22 79% 28 75.72 0.0
03 22:35 S 11 16.09 Fair CLR 26 22 79% 28 75.72 0.0
03 22:15 S 7 16.09 Fair CLR 26 22 79% 28 75.72 0.0
03 21:55 S 9 16.09 Partly Cloudy SCT120 26 22 79% 28 75.72 0.0
03 21:35 S 7 16.09 Partly Cloudy SCT120 27 22 74% 29 75.72 0.0
03 21:15 S 7 16.09 Fair CLR 27 22 74% 29 75.72 0.0
03 20:55 S 11 16.09 Fair CLR 27 22 74% 29 75.69 0.0
03 20:35 S 13 16.09 Fair CLR 27 22 74% 29 75.69 0.0
03 20:15 S 9 16.09 Fair CLR 27 22 74% 29 75.69 0.0
03 19:55 S 6 16.09 Fair CLR 28 22 70% 31 75.67 0.0
03 19:35 S 11 16.09 Fair CLR 28 22 70% 31 75.67 0.0
03 19:15 S 9 16.09 Fair CLR 28 22 70% 31 75.67 0.0
03 18:55 S 9 16.09 Fair CLR 29 22 66% 32 75.67 0.0
03 18:35 S 9 16.09 Fair CLR 29 22 66% 32 75.69 0.0
03 18:15 S 15 G 26 16.09 Fair CLR 30 22 62% 33 75.64 0.0
03 17:55 S 19 G 28 16.09 Fair CLR 30 21 59% 33 75.62 0.0
03 17:35 S 22 G 28 16.09 Fair CLR 31 21 55% 34 75.64 0.0
03 17:15 S 13 G 19 16.09 Fair CLR 31 21 55% 34 75.64 0.0
03 16:55 S 17 16.09 Fair CLR 31 21 55% 34 75.64 0.0
03 16:35 S 17 G 26 16.09 Fair CLR 31 21 55% 34 75.67 0.0
03 16:15 S 17 G 31 16.09 Fair CLR 30 20 55% 32 75.67 0.0
03 15:55 S 22 G 30 16.09 Fair CLR 30 20 55% 32 75.67 0.0
03 15:35 S 24 G 30 16.09 Fair CLR 31 20 52% 33 75.69 0.0
03 15:15 S 22 G 30 16.09 Fair CLR 31 20 52% 33 75.69 0.0
03 14:55 S 24 16.09 Fair CLR 30 20 55% 32 75.72 0.0
03 14:35 S 17 16.09 Fair CLR 30 20 55% 32 75.74 0.0
03 14:15 SE 22 16.09 Fair CLR 30 20 55% 32 75.72 0.0
03 13:55 SE 9 16.09 Fair CLR 29 19 55% 30 75.74 0.0
03 13:35 S 13 16.09 Fair CLR 27 19 62% 28 75.74 0.0
03 13:15 S 17 16.09 Fair CLR 28 19 58% 29 75.77 0.0
03 12:55 S 24 G 37 16.09 Fair CLR 29 19 55% 30 75.77 0.0
03 12:35 S 13 16.09 Fair CLR 29 19 55% 30 75.77 0.0
03 12:15 S 11 G 26 16.09 Fair CLR 27 19 62% 28 75.77 0.0
03 11:55 S 15 16.09 Fair CLR 28 19 58% 29 75.77 0.0
03 11:35 S 17 16.09 Thunderstorm in Vicinity CLR 28 19 58% 29 75.79 0.0
Date Time (cdt) Wind (kph) Vis. (km) Weather Sky Cond. Air Dwpt Max. Min. Relative Humidity Wind Chill (°C) Heat Index (°C) altimeter (cm) sea level (mb) 1 hr 3 hr 6 hr
6 hour
Temperature (ºC) Pressure Precipitation (cm)